<?xml version="1.0" encoding="UTF-8" standalone="no" ?>
<gpx xmlns="http://www.topografix.com/GPX/1/1" xmlns:xsi="http://www.w3.org/2001/XMLSchema-instance" xsi:schemaLocation="http://www.topografix.com/GPX/1/1 http://www.topografix.com/GPX/1/1/gpx.xsd" version="1.1" creator="VisuGPX - https://www.visugpx.com">
  <metadata>
    <name>De Meillerie à Salvigny</name>
    <desc><![CDATA[Randonnée en Haute-Savoie]]></desc>
  </metadata>
  <trk>
    <name><![CDATA[ACTIVE LOG: 29 JUL 2015 09:14]]></name>
    <trkseg>
      <trkpt lat="46.12254" lon="6.75306">
        <ele>1520.94</ele>
        <time>2015-07-29T07:15:32Z</time>
      </trkpt>
      <trkpt lat="46.12213" lon="6.75267">
        <ele>1510.37</ele>
        <time>2015-07-29T07:16:37Z</time>
      </trkpt>
      <trkpt lat="46.12174" lon="6.75233">
        <ele>1501.72</ele>
        <time>2015-07-29T07:17:42Z</time>
      </trkpt>
      <trkpt lat="46.12129" lon="6.75171">
        <ele>1490.18</ele>
        <time>2015-07-29T07:18:47Z</time>
      </trkpt>
      <trkpt lat="46.121" lon="6.75118">
        <ele>1475.76</ele>
        <time>2015-07-29T07:19:52Z</time>
      </trkpt>
      <trkpt lat="46.12081" lon="6.75042">
        <ele>1461.34</ele>
        <time>2015-07-29T07:20:57Z</time>
      </trkpt>
      <trkpt lat="46.12087" lon="6.74958">
        <ele>1452.21</ele>
        <time>2015-07-29T07:22:02Z</time>
      </trkpt>
      <trkpt lat="46.12066" lon="6.7488">
        <ele>1438.75</ele>
        <time>2015-07-29T07:23:07Z</time>
      </trkpt>
      <trkpt lat="46.12046" lon="6.7483">
        <ele>1425.29</ele>
        <time>2015-07-29T07:24:12Z</time>
      </trkpt>
      <trkpt lat="46.11995" lon="6.74831">
        <ele>1411.35</ele>
        <time>2015-07-29T07:25:17Z</time>
      </trkpt>
      <trkpt lat="46.11982" lon="6.74764">
        <ele>1399.82</ele>
        <time>2015-07-29T07:26:22Z</time>
      </trkpt>
      <trkpt lat="46.11979" lon="6.74733">
        <ele>1396.45</ele>
        <time>2015-07-29T07:27:27Z</time>
      </trkpt>
      <trkpt lat="46.11951" lon="6.74679">
        <ele>1384.92</ele>
        <time>2015-07-29T07:28:32Z</time>
      </trkpt>
      <trkpt lat="46.1195" lon="6.746">
        <ele>1373.86</ele>
        <time>2015-07-29T07:29:37Z</time>
      </trkpt>
      <trkpt lat="46.11958" lon="6.74527">
        <ele>1363.29</ele>
        <time>2015-07-29T07:30:42Z</time>
      </trkpt>
      <trkpt lat="46.1194" lon="6.7445">
        <ele>1354.15</ele>
        <time>2015-07-29T07:31:47Z</time>
      </trkpt>
      <trkpt lat="46.11901" lon="6.74393">
        <ele>1343.58</ele>
        <time>2015-07-29T07:32:52Z</time>
      </trkpt>
      <trkpt lat="46.11903" lon="6.74326">
        <ele>1333.01</ele>
        <time>2015-07-29T07:33:57Z</time>
      </trkpt>
      <trkpt lat="46.11917" lon="6.74277">
        <ele>1324.83</ele>
        <time>2015-07-29T07:35:02Z</time>
      </trkpt>
      <trkpt lat="46.11923" lon="6.74217">
        <ele>1318.1</ele>
        <time>2015-07-29T07:36:07Z</time>
      </trkpt>
      <trkpt lat="46.11902" lon="6.7415">
        <ele>1304.17</ele>
        <time>2015-07-29T07:37:12Z</time>
      </trkpt>
      <trkpt lat="46.11886" lon="6.74086">
        <ele>1293.11</ele>
        <time>2015-07-29T07:38:17Z</time>
      </trkpt>
      <trkpt lat="46.1189" lon="6.74022">
        <ele>1283.5</ele>
        <time>2015-07-29T07:39:22Z</time>
      </trkpt>
      <trkpt lat="46.11854" lon="6.74034">
        <ele>1275.81</ele>
        <time>2015-07-29T07:40:27Z</time>
      </trkpt>
      <trkpt lat="46.11791" lon="6.74081">
        <ele>1266.19</ele>
        <time>2015-07-29T07:41:32Z</time>
      </trkpt>
      <trkpt lat="46.11737" lon="6.74102">
        <ele>1258.02</ele>
        <time>2015-07-29T07:42:37Z</time>
      </trkpt>
      <trkpt lat="46.11701" lon="6.74177">
        <ele>1250.33</ele>
        <time>2015-07-29T07:43:42Z</time>
      </trkpt>
      <trkpt lat="46.11661" lon="6.74214">
        <ele>1238.8</ele>
        <time>2015-07-29T07:44:47Z</time>
      </trkpt>
      <trkpt lat="46.11602" lon="6.7423">
        <ele>1230.14</ele>
        <time>2015-07-29T07:45:52Z</time>
      </trkpt>
      <trkpt lat="46.11574" lon="6.74272">
        <ele>1225.82</ele>
        <time>2015-07-29T07:46:57Z</time>
      </trkpt>
      <trkpt lat="46.11575" lon="6.74279">
        <ele>1225.82</ele>
        <time>2015-07-29T07:48:02Z</time>
      </trkpt>
      <trkpt lat="46.11575" lon="6.74264">
        <ele>1224.86</ele>
        <time>2015-07-29T07:49:07Z</time>
      </trkpt>
      <trkpt lat="46.11528" lon="6.74289">
        <ele>1217.65</ele>
        <time>2015-07-29T07:50:12Z</time>
      </trkpt>
      <trkpt lat="46.11467" lon="6.7429">
        <ele>1206.11</ele>
        <time>2015-07-29T07:51:17Z</time>
      </trkpt>
      <trkpt lat="46.11436" lon="6.74223">
        <ele>1192.17</ele>
        <time>2015-07-29T07:52:22Z</time>
      </trkpt>
      <trkpt lat="46.114" lon="6.74219">
        <ele>1180.16</ele>
        <time>2015-07-29T07:53:27Z</time>
      </trkpt>
      <trkpt lat="46.11342" lon="6.74216">
        <ele>1166.22</ele>
        <time>2015-07-29T07:54:32Z</time>
      </trkpt>
      <trkpt lat="46.1131" lon="6.74236">
        <ele>1155.16</ele>
        <time>2015-07-29T07:55:37Z</time>
      </trkpt>
      <trkpt lat="46.11278" lon="6.74267">
        <ele>1140.26</ele>
        <time>2015-07-29T07:56:42Z</time>
      </trkpt>
      <trkpt lat="46.11242" lon="6.74278">
        <ele>1124.4</ele>
        <time>2015-07-29T07:57:47Z</time>
      </trkpt>
      <trkpt lat="46.11209" lon="6.74299">
        <ele>1114.79</ele>
        <time>2015-07-29T07:58:52Z</time>
      </trkpt>
      <trkpt lat="46.11196" lon="6.74367">
        <ele>1105.17</ele>
        <time>2015-07-29T07:59:57Z</time>
      </trkpt>
      <trkpt lat="46.11152" lon="6.74324">
        <ele>1094.6</ele>
        <time>2015-07-29T08:01:02Z</time>
      </trkpt>
      <trkpt lat="46.11126" lon="6.74242">
        <ele>1081.62</ele>
        <time>2015-07-29T08:02:07Z</time>
      </trkpt>
      <trkpt lat="46.11089" lon="6.74203">
        <ele>1069.6</ele>
        <time>2015-07-29T08:03:12Z</time>
      </trkpt>
      <trkpt lat="46.1105" lon="6.74212">
        <ele>1060.95</ele>
        <time>2015-07-29T08:04:17Z</time>
      </trkpt>
      <trkpt lat="46.11016" lon="6.74266">
        <ele>1053.26</ele>
        <time>2015-07-29T08:05:22Z</time>
      </trkpt>
      <trkpt lat="46.10961" lon="6.74322">
        <ele>1043.17</ele>
        <time>2015-07-29T08:06:27Z</time>
      </trkpt>
      <trkpt lat="46.10902" lon="6.74359">
        <ele>1032.11</ele>
        <time>2015-07-29T08:07:32Z</time>
      </trkpt>
      <trkpt lat="46.10852" lon="6.74384">
        <ele>1023.46</ele>
        <time>2015-07-29T08:08:37Z</time>
      </trkpt>
      <trkpt lat="46.10852" lon="6.74377">
        <ele>1022.02</ele>
        <time>2015-07-29T08:09:42Z</time>
      </trkpt>
      <trkpt lat="46.10851" lon="6.7438">
        <ele>1021.54</ele>
        <time>2015-07-29T08:10:47Z</time>
      </trkpt>
      <trkpt lat="46.1084" lon="6.7445">
        <ele>1016.25</ele>
        <time>2015-07-29T08:11:52Z</time>
      </trkpt>
      <trkpt lat="46.10794" lon="6.74473">
        <ele>1016.73</ele>
        <time>2015-07-29T08:12:57Z</time>
      </trkpt>
      <trkpt lat="46.10739" lon="6.74471">
        <ele>1015.29</ele>
        <time>2015-07-29T08:14:02Z</time>
      </trkpt>
      <trkpt lat="46.10715" lon="6.74448">
        <ele>1013.37</ele>
        <time>2015-07-29T08:15:07Z</time>
      </trkpt>
      <trkpt lat="46.10643" lon="6.74422">
        <ele>1008.08</ele>
        <time>2015-07-29T08:16:12Z</time>
      </trkpt>
      <trkpt lat="46.10603" lon="6.74404">
        <ele>1004.23</ele>
        <time>2015-07-29T08:17:17Z</time>
      </trkpt>
      <trkpt lat="46.10597" lon="6.74392">
        <ele>1000.87</ele>
        <time>2015-07-29T08:18:22Z</time>
      </trkpt>
      <trkpt lat="46.10526" lon="6.74389">
        <ele>993.66</ele>
        <time>2015-07-29T08:19:27Z</time>
      </trkpt>
      <trkpt lat="46.10471" lon="6.74409">
        <ele>987.41</ele>
        <time>2015-07-29T08:20:32Z</time>
      </trkpt>
      <trkpt lat="46.10405" lon="6.74445">
        <ele>981.16</ele>
        <time>2015-07-29T08:21:37Z</time>
      </trkpt>
      <trkpt lat="46.10341" lon="6.74493">
        <ele>974.43</ele>
        <time>2015-07-29T08:22:42Z</time>
      </trkpt>
      <trkpt lat="46.10312" lon="6.74534">
        <ele>972.03</ele>
        <time>2015-07-29T08:23:47Z</time>
      </trkpt>
      <trkpt lat="46.10301" lon="6.74491">
        <ele>965.78</ele>
        <time>2015-07-29T08:24:52Z</time>
      </trkpt>
      <trkpt lat="46.10332" lon="6.74398">
        <ele>960.98</ele>
        <time>2015-07-29T08:25:57Z</time>
      </trkpt>
      <trkpt lat="46.10353" lon="6.74318">
        <ele>956.65</ele>
        <time>2015-07-29T08:27:02Z</time>
      </trkpt>
      <trkpt lat="46.10329" lon="6.74268">
        <ele>951.84</ele>
        <time>2015-07-29T08:28:07Z</time>
      </trkpt>
      <trkpt lat="46.10326" lon="6.74356">
        <ele>947.04</ele>
        <time>2015-07-29T08:29:12Z</time>
      </trkpt>
      <trkpt lat="46.10307" lon="6.74313">
        <ele>938.86</ele>
        <time>2015-07-29T08:30:17Z</time>
      </trkpt>
      <trkpt lat="46.103" lon="6.74255">
        <ele>933.1</ele>
        <time>2015-07-29T08:31:22Z</time>
      </trkpt>
      <trkpt lat="46.10255" lon="6.74267">
        <ele>930.69</ele>
        <time>2015-07-29T08:32:27Z</time>
      </trkpt>
      <trkpt lat="46.10205" lon="6.74253">
        <ele>921.56</ele>
        <time>2015-07-29T08:33:32Z</time>
      </trkpt>
      <trkpt lat="46.10136" lon="6.74232">
        <ele>914.35</ele>
        <time>2015-07-29T08:34:37Z</time>
      </trkpt>
      <trkpt lat="46.10108" lon="6.7426">
        <ele>905.22</ele>
        <time>2015-07-29T08:35:42Z</time>
      </trkpt>
      <trkpt lat="46.10055" lon="6.74246">
        <ele>899.93</ele>
        <time>2015-07-29T08:36:47Z</time>
      </trkpt>
      <trkpt lat="46.09989" lon="6.74221">
        <ele>894.16</ele>
        <time>2015-07-29T08:37:52Z</time>
      </trkpt>
      <trkpt lat="46.09962" lon="6.74209">
        <ele>892.72</ele>
        <time>2015-07-29T08:38:57Z</time>
      </trkpt>
      <trkpt lat="46.09887" lon="6.74187">
        <ele>885.03</ele>
        <time>2015-07-29T08:40:02Z</time>
      </trkpt>
      <trkpt lat="46.09886" lon="6.74235">
        <ele>885.51</ele>
        <time>2015-07-29T08:41:07Z</time>
      </trkpt>
      <trkpt lat="46.09883" lon="6.74237">
        <ele>885.99</ele>
        <time>2015-07-29T08:42:12Z</time>
      </trkpt>
      <trkpt lat="46.09824" lon="6.74244">
        <ele>880.22</ele>
        <time>2015-07-29T08:43:17Z</time>
      </trkpt>
      <trkpt lat="46.09774" lon="6.74193">
        <ele>875.9</ele>
        <time>2015-07-29T08:44:22Z</time>
      </trkpt>
      <trkpt lat="46.09732" lon="6.74241">
        <ele>870.61</ele>
        <time>2015-07-29T08:45:27Z</time>
      </trkpt>
      <trkpt lat="46.09687" lon="6.74278">
        <ele>866.77</ele>
        <time>2015-07-29T08:46:32Z</time>
      </trkpt>
      <trkpt lat="46.0963" lon="6.74251">
        <ele>860.04</ele>
        <time>2015-07-29T08:47:37Z</time>
      </trkpt>
      <trkpt lat="46.09594" lon="6.74178">
        <ele>856.67</ele>
        <time>2015-07-29T08:48:42Z</time>
      </trkpt>
      <trkpt lat="46.09536" lon="6.74169">
        <ele>853.79</ele>
        <time>2015-07-29T08:49:47Z</time>
      </trkpt>
      <trkpt lat="46.09504" lon="6.74141">
        <ele>850.9</ele>
        <time>2015-07-29T08:50:52Z</time>
      </trkpt>
      <trkpt lat="46.0946" lon="6.74116">
        <ele>846.1</ele>
        <time>2015-07-29T08:51:57Z</time>
      </trkpt>
      <trkpt lat="46.09434" lon="6.74138">
        <ele>847.06</ele>
        <time>2015-07-29T08:53:02Z</time>
      </trkpt>
      <trkpt lat="46.09413" lon="6.74141">
        <ele>845.14</ele>
        <time>2015-07-29T08:54:07Z</time>
      </trkpt>
      <trkpt lat="46.09366" lon="6.74125">
        <ele>841.77</ele>
        <time>2015-07-29T08:55:12Z</time>
      </trkpt>
      <trkpt lat="46.09324" lon="6.74099">
        <ele>838.89</ele>
        <time>2015-07-29T08:56:05Z</time>
      </trkpt>
    </trkseg>
  </trk>
</gpx>